createdAt,value
2023-04-29T00:00:45.828Z,87.8685
2023-04-29T00:01:48.416Z,87.7236
2023-04-29T00:02:51.124Z,87.5627
2023-04-29T00:03:53.754Z,87.5831
2023-04-29T00:04:56.400Z,87.5042
2023-04-29T00:05:58.926Z,87.5540
2023-04-29T00:07:01.391Z,87.6177
2023-04-29T00:08:03.948Z,87.5377
2023-04-29T00:09:06.565Z,87.6221
2023-04-29T00:10:09.146Z,87.5150
2023-04-29T00:11:11.747Z,87.4862
2023-04-29T00:12:14.314Z,87.4687
2023-04-29T00:13:16.939Z,87.3646
2023-04-29T00:14:19.502Z,87.2554
2023-04-29T00:15:22.121Z,87.2765
2023-04-29T00:18:13.302Z,87.1853
2023-04-29T00:19:15.904Z,87.2944
2023-04-29T00:20:18.648Z,87.2800
2023-04-29T00:23:09.755Z,87.0638
2023-04-29T00:24:12.285Z,87.1336
2023-04-29T00:25:14.902Z,87.0130
2023-04-29T00:26:17.483Z,86.8030
2023-04-29T00:27:20.355Z,86.6432
2023-04-29T00:28:22.672Z,86.8736
2023-04-29T00:29:25.316Z,86.7423
2023-04-29T00:30:27.871Z,86.3621
2023-04-29T00:31:30.532Z,86.4193
2023-04-29T00:32:33.076Z,86.5274
2023-04-29T00:33:35.668Z,86.6806
2023-04-29T00:34:38.248Z,86.7870
2023-04-29T00:35:40.863Z,86.7034
2023-04-29T00:36:43.432Z,86.7431
2023-04-29T00:37:46.038Z,86.8839
2023-04-29T00:38:48.606Z,86.8653
2023-04-29T00:39:51.442Z,86.8134
2023-04-29T00:40:53.810Z,86.9056
2023-04-29T00:41:56.418Z,86.7551
2023-04-29T00:42:58.966Z,86.7371
2023-04-29T00:44:01.603Z,86.7009
2023-04-29T00:45:04.787Z,86.7143
2023-04-29T00:46:06.833Z,86.6042
2023-04-29T00:47:09.340Z,86.7448
2023-04-29T00:48:11.959Z,86.9978
2023-04-29T00:49:14.520Z,87.2093
2023-04-29T00:50:17.150Z,87.2425
2023-04-29T00:51:19.770Z,87.2072
2023-04-29T00:52:22.717Z,87.1508
2023-04-29T00:53:24.894Z,87.0934
2023-04-29T00:54:31.967Z,87.0272
2023-04-29T00:55:30.072Z,86.9896
2023-04-29T00:56:32.690Z,86.8579
2023-04-29T00:57:35.264Z,86.8764
2023-04-29T00:58:37.874Z,86.9137
2023-04-29T00:59:40.667Z,86.8775
2023-04-29T01:00:43.070Z,86.8466
2023-04-29T01:01:45.723Z,86.8111
2023-04-29T01:02:48.322Z,86.7407
2023-04-29T01:03:51.034Z,86.6817
2023-04-29T01:04:53.577Z,86.7063
2023-04-29T01:05:55.991Z,86.6869
2023-04-29T01:06:58.633Z,86.5695
2023-04-29T01:08:01.190Z,86.3231
2023-04-29T01:09:03.786Z,86.3706
2023-04-29T01:10:06.350Z,86.7239
2023-04-29T01:11:08.982Z,87.1737
2023-04-29T01:12:11.553Z,87.4540
2023-04-29T01:13:14.171Z,87.7620
2023-04-29T01:14:16.723Z,88.0902
2023-04-29T01:15:19.339Z,88.3729
2023-04-29T01:16:21.918Z,88.6103
2023-04-29T01:17:24.608Z,88.8038
2023-04-29T01:18:27.093Z,88.9993
2023-04-29T01:19:29.716Z,89.0822
2023-04-29T01:20:32.295Z,89.1191
2023-04-29T01:21:34.900Z,89.0841
2023-04-29T01:22:37.571Z,89.0956
2023-04-29T01:23:40.082Z,88.9564
2023-04-29T01:24:42.772Z,88.8038
2023-04-29T01:25:45.314Z,88.8354
2023-04-29T01:26:47.830Z,88.9047
2023-04-29T01:27:50.456Z,88.9301
2023-04-29T01:28:53.018Z,88.9079
2023-04-29T01:29:55.632Z,88.9145
2023-04-29T01:30:58.274Z,88.9017
2023-04-29T01:32:00.825Z,88.8921
2023-04-29T01:33:03.452Z,88.9304
2023-04-29T01:34:05.996Z,88.7477
2023-04-29T01:35:08.554Z,88.4908
2023-04-29T01:36:11.174Z,88.4809
2023-04-29T01:37:13.747Z,88.5251
2023-04-29T01:38:16.424Z,88.6428
2023-04-29T01:39:18.926Z,88.6008
2023-04-29T01:40:21.542Z,88.6975
2023-04-29T01:41:24.110Z,88.7028
2023-04-29T01:42:26.823Z,88.6677
2023-04-29T01:43:29.295Z,88.7542
2023-04-29T01:44:31.896Z,88.6987
2023-04-29T01:45:34.474Z,88.4156
2023-04-29T01:46:37.148Z,88.4321
2023-04-29T01:47:39.712Z,88.4051
2023-04-29T01:48:42.266Z,88.4274
2023-04-29T01:49:44.842Z,88.4616
2023-04-29T01:50:47.447Z,88.4421
2023-04-29T01:51:50.018Z,88.3302
2023-04-29T01:52:52.637Z,88.5172
2023-04-29T01:53:55.188Z,88.4985
2023-04-29T01:54:57.905Z,88.6290
2023-04-29T01:56:00.367Z,88.6478
2023-04-29T01:57:02.984Z,88.5949
2023-04-29T01:58:05.554Z,88.5264
2023-04-29T01:59:08.241Z,88.6425
2023-04-29T02:00:10.723Z,88.5878
2023-04-29T02:01:13.365Z,88.5936
2023-04-29T02:02:15.923Z,88.5319
2023-04-29T02:05:07.179Z,88.3085
2023-04-29T02:06:09.748Z,88.3209
2023-04-29T02:07:12.306Z,88.3946
2023-04-29T02:08:15.171Z,88.3354
2023-04-29T02:09:17.497Z,88.3193
2023-04-29T02:10:20.114Z,88.4737
2023-04-29T02:13:01.670Z,88.2974
2023-04-29T02:14:04.292Z,88.3878
2023-04-29T02:15:06.861Z,88.5011
2023-04-29T02:16:09.521Z,88.4391
2023-04-29T02:17:12.065Z,88.4285
2023-04-29T02:18:14.699Z,88.5531
2023-04-29T02:19:17.260Z,88.6793
2023-04-29T02:20:19.884Z,88.6862
2023-04-29T02:21:22.462Z,88.4997
2023-04-29T02:22:25.059Z,88.3965
2023-04-29T02:23:27.775Z,88.2414
2023-04-29T02:24:30.271Z,87.8711
2023-04-29T02:25:32.847Z,87.5737
2023-04-29T02:26:35.440Z,87.4087
2023-04-29T02:27:38.035Z,87.4622
2023-04-29T02:28:40.647Z,87.5394
2023-04-29T02:29:43.202Z,87.5591
2023-04-29T02:30:45.826Z,87.4433
2023-04-29T02:31:48.412Z,87.2197
2023-04-29T02:32:51.040Z,87.4859
2023-04-29T02:33:53.585Z,87.6599
2023-04-29T02:34:56.208Z,87.6482
2023-04-29T02:35:58.776Z,87.4673
2023-04-29T02:37:01.399Z,87.3384
2023-04-29T02:38:03.978Z,87.1162
2023-04-29T02:39:06.599Z,86.8241
2023-04-29T02:40:09.166Z,86.8426
2023-04-29T02:41:11.763Z,87.0012
2023-04-29T02:42:14.339Z,86.8350
2023-04-29T02:43:16.959Z,86.8643
2023-04-29T02:44:19.526Z,86.7505
2023-04-29T02:45:22.149Z,86.7472
2023-04-29T02:46:24.773Z,86.8471
2023-04-29T02:47:27.378Z,87.1765
2023-04-29T02:48:29.899Z,87.5471
2023-04-29T02:49:32.530Z,87.6846
2023-04-29T02:50:35.105Z,87.6225
2023-04-29T02:51:37.719Z,87.4798
2023-04-29T02:52:40.421Z,87.3294
2023-04-29T02:53:42.897Z,87.0696
2023-04-29T02:54:45.471Z,87.0896
2023-04-29T02:55:48.083Z,87.0814
2023-04-29T02:56:50.827Z,87.1113
2023-04-29T02:57:53.282Z,87.2912
2023-04-29T02:58:55.856Z,87.5403
2023-04-29T02:59:58.496Z,87.9386
2023-04-29T03:01:01.097Z,88.3375
2023-04-29T03:02:03.673Z,88.5337
2023-04-29T03:03:06.330Z,88.5809
2023-04-29T03:04:09.328Z,88.7029
2023-04-29T03:05:11.451Z,88.7350
2023-04-29T03:06:14.045Z,88.6604
2023-04-29T03:07:16.620Z,88.5165
2023-04-29T03:08:19.237Z,88.3998
2023-04-29T03:09:21.808Z,88.3596
2023-04-29T03:10:24.440Z,88.0816
2023-04-29T03:11:27.020Z,87.9066
2023-04-29T03:12:29.636Z,87.8553
2023-04-29T03:13:32.193Z,87.7909
2023-04-29T03:14:34.803Z,87.9699
2023-04-29T03:15:37.381Z,88.0629
2023-04-29T03:16:40.048Z,88.1986
2023-04-29T03:17:42.574Z,88.3190
2023-04-29T03:18:45.207Z,88.1627
2023-04-29T03:19:47.751Z,87.8662
2023-04-29T03:20:50.368Z,87.7680
2023-04-29T03:21:54.016Z,87.5733
2023-04-29T03:22:55.546Z,87.4237
2023-04-29T03:23:58.122Z,87.5938
2023-04-29T03:25:00.740Z,87.7471
2023-04-29T03:26:03.351Z,87.7751
2023-04-29T03:27:05.925Z,87.8527
2023-04-29T03:28:08.510Z,87.7915
2023-04-29T03:31:09.698Z,87.3289
2023-04-29T03:32:11.987Z,87.2151
2023-04-29T03:33:14.552Z,87.4565
2023-04-29T03:35:56.156Z,87.8907
2023-04-29T03:36:58.727Z,87.8715
2023-04-29T03:38:01.344Z,87.8332
2023-04-29T03:39:03.917Z,87.9319
2023-04-29T03:40:06.537Z,87.9349
2023-04-29T03:41:09.105Z,87.9137
2023-04-29T03:42:11.735Z,87.7222
2023-04-29T03:43:14.306Z,87.6235
2023-04-29T03:44:16.920Z,87.4966
2023-04-29T03:45:19.493Z,87.3851
2023-04-29T03:47:37.021Z,87.1106
2023-04-29T03:48:39.594Z,87.0268
2023-04-29T03:51:21.154Z,86.8086
2023-04-29T03:54:02.766Z,86.6007
2023-04-29T03:55:05.339Z,86.6753
2023-04-29T03:56:07.954Z,86.8050
2023-04-29T03:57:10.523Z,87.0686
2023-04-29T03:58:13.140Z,87.2065
2023-04-29T03:59:15.721Z,87.5777
2023-04-29T04:00:18.333Z,87.8385
2023-04-29T04:01:20.913Z,88.0088
2023-04-29T04:02:23.631Z,88.1001
2023-04-29T04:03:26.254Z,88.1621
2023-04-29T04:04:28.879Z,88.0015
2023-04-29T04:05:31.295Z,87.7088
2023-04-29T04:06:33.928Z,87.4289
2023-04-29T04:07:36.495Z,87.4707
2023-04-29T04:08:39.113Z,87.5935
2023-04-29T04:09:41.681Z,87.9180
2023-04-29T04:10:44.306Z,87.8614
2023-04-29T04:11:46.876Z,87.5090
2023-04-29T04:12:49.497Z,87.4765
2023-04-29T04:13:52.110Z,87.4030
2023-04-29T04:14:54.684Z,87.2093
2023-04-29T04:15:57.275Z,86.9162
2023-04-29T04:16:59.877Z,87.0103
2023-04-29T04:18:02.518Z,87.2955
2023-04-29T04:19:05.075Z,87.3973
2023-04-29T04:20:07.659Z,87.5646
2023-04-29T04:21:10.275Z,87.8296
2023-04-29T04:22:13.074Z,88.0222
2023-04-29T04:23:15.452Z,88.1645
2023-04-29T04:24:18.021Z,88.3383
2023-04-29T04:25:20.655Z,88.3726
2023-04-29T04:26:23.236Z,88.5370
2023-04-29T04:27:25.848Z,88.3812
2023-04-29T04:28:28.403Z,88.1877
2023-04-29T04:29:31.045Z,88.2388
2023-04-29T04:30:33.597Z,88.1588
2023-04-29T04:31:36.291Z,88.1442
2023-04-29T04:32:38.828Z,88.0001
2023-04-29T04:33:41.421Z,88.0336
2023-04-29T04:34:43.984Z,87.9471
2023-04-29T04:35:46.610Z,88.1190
2023-04-29T04:36:49.189Z,88.0314
2023-04-29T04:37:51.795Z,87.8662
2023-04-29T04:38:54.554Z,87.9121
2023-04-29T04:39:56.993Z,87.8537
2023-04-29T04:40:59.571Z,87.6477
2023-04-29T04:42:02.172Z,87.6121
2023-04-29T04:43:04.745Z,87.6029
2023-04-29T04:44:07.372Z,87.5512
2023-04-29T04:45:09.938Z,87.4641
2023-04-29T04:46:12.637Z,87.4004
2023-04-29T04:48:20.383Z,87.1997
2023-04-29T04:49:23.010Z,87.4465
2023-04-29T04:50:25.585Z,87.5138
2023-04-29T04:51:28.585Z,87.4027
2023-04-29T04:52:30.775Z,87.3452
2023-04-29T04:53:33.398Z,87.2938
2023-04-29T04:54:35.966Z,87.2166
2023-04-29T04:55:38.580Z,87.3137
2023-04-29T04:56:41.147Z,87.4274
2023-04-29T04:57:43.771Z,87.5533
2023-04-29T04:58:46.339Z,87.7709
2023-04-29T04:59:48.959Z,88.0639
2023-04-29T05:00:51.565Z,88.1770
2023-04-29T05:01:54.196Z,88.3522
2023-04-29T05:02:56.815Z,88.4829
2023-04-29T05:03:59.572Z,88.4944
2023-04-29T05:05:01.939Z,88.5416
2023-04-29T05:06:04.561Z,88.6586
2023-04-29T05:07:07.126Z,88.5805
2023-04-29T05:08:09.767Z,88.3297
2023-04-29T05:09:12.330Z,88.0358
2023-04-29T05:10:14.944Z,88.1725
2023-04-29T05:11:17.540Z,88.1763
2023-04-29T05:12:20.152Z,88.1294
2023-04-29T05:13:22.726Z,88.0649
2023-04-29T05:14:25.347Z,87.9798
2023-04-29T05:15:27.912Z,87.9747
2023-04-29T05:16:30.547Z,88.0066
2023-04-29T05:17:33.110Z,87.8965
2023-04-29T05:18:35.696Z,87.7603
2023-04-29T05:19:38.268Z,87.5620
2023-04-29T05:20:40.881Z,87.3891
2023-04-29T05:21:43.471Z,87.4272
2023-04-29T05:22:46.076Z,87.4555
2023-04-29T05:23:48.660Z,87.4845
2023-04-29T05:24:51.288Z,87.5984
2023-04-29T05:25:53.851Z,87.5639
2023-04-29T05:26:56.477Z,87.5119
2023-04-29T05:27:59.033Z,87.2526
2023-04-29T05:29:01.659Z,87.0159
2023-04-29T05:30:04.231Z,86.8881
2023-04-29T05:31:06.921Z,86.7790
2023-04-29T05:32:09.409Z,86.3240
2023-04-29T05:33:12.037Z,86.5518
2023-04-29T05:34:14.624Z,86.5532
2023-04-29T05:35:17.233Z,86.8123
2023-04-29T05:36:19.793Z,86.8692
2023-04-29T05:37:22.445Z,86.9008
2023-04-29T05:38:24.994Z,86.9950
2023-04-29T05:39:27.626Z,86.9591
2023-04-29T05:40:30.253Z,87.0152
2023-04-29T05:41:32.796Z,86.9197
2023-04-29T05:42:35.367Z,86.8286
2023-04-29T05:43:38.000Z,86.8384
2023-04-29T05:44:40.577Z,86.7501
2023-04-29T05:45:43.188Z,86.7441
2023-04-29T05:46:45.796Z,86.5907
2023-04-29T05:47:48.396Z,86.7099
2023-04-29T05:48:50.925Z,86.5103
2023-04-29T05:49:53.799Z,86.6809
2023-04-29T05:50:56.113Z,86.5130
2023-04-29T05:51:58.736Z,86.6540
2023-04-29T05:54:30.811Z,86.6897
2023-04-29T05:55:33.249Z,86.9161
2023-04-29T05:56:35.876Z,86.9180
2023-04-29T05:57:38.456Z,86.8769
2023-04-29T05:58:41.089Z,86.8980
2023-04-29T05:59:43.640Z,87.1647
2023-04-29T06:00:46.253Z,87.2365
2023-04-29T06:01:48.829Z,87.1497
2023-04-29T06:02:58.608Z,87.1784
2023-04-29T06:03:54.214Z,87.3428
2023-04-29T06:04:56.866Z,87.3404
2023-04-29T06:05:59.600Z,87.3971
2023-04-29T06:07:01.831Z,87.1900
2023-04-29T06:08:04.402Z,86.8177
2023-04-29T06:09:13.446Z,86.5308
2023-04-29T06:10:09.580Z,86.6506
2023-04-29T06:11:12.218Z,86.8978
2023-04-29T06:12:14.774Z,86.8848
2023-04-29T06:13:17.407Z,86.5554
2023-04-29T06:14:19.955Z,86.3716
2023-04-29T06:15:22.581Z,86.2442
2023-04-29T06:16:25.196Z,86.9169
2023-04-29T06:17:27.806Z,86.9124
2023-04-29T06:18:30.347Z,86.7756
2023-04-29T06:19:33.010Z,86.9319
2023-04-29T06:20:37.489Z,86.9736
2023-04-29T06:21:38.130Z,86.9237
2023-04-29T06:22:40.702Z,87.0196
2023-04-29T06:23:43.322Z,87.1507
2023-04-29T06:24:45.892Z,86.7534
2023-04-29T06:25:48.870Z,86.3953
2023-04-29T06:26:51.075Z,86.1106
2023-04-29T06:27:53.706Z,85.9666
2023-04-29T06:28:56.245Z,86.1401
2023-04-29T06:29:58.871Z,86.2660
2023-04-29T06:31:01.431Z,86.0806
2023-04-29T06:32:04.085Z,85.6834
2023-04-29T06:33:06.648Z,85.9154
2023-04-29T06:34:09.258Z,85.1003
2023-04-29T06:35:11.788Z,85.3595
2023-04-29T06:36:14.407Z,85.1379
2023-04-29T06:37:16.952Z,85.0791
2023-04-29T06:38:19.571Z,84.4688
2023-04-29T06:39:22.149Z,84.8674
2023-04-29T06:40:24.788Z,84.2715
2023-04-29T06:41:27.324Z,84.2011
2023-04-29T06:42:29.929Z,82.8960
2023-04-29T06:43:32.490Z,83.2008
2023-04-29T06:44:35.116Z,83.4471
2023-04-29T06:45:37.674Z,83.4443
2023-04-29T06:46:40.299Z,84.0434
2023-04-29T06:47:42.864Z,84.2851
2023-04-29T06:48:45.462Z,83.5342
2023-04-29T06:49:48.022Z,83.6075
2023-04-29T06:50:50.639Z,83.5072
2023-04-29T06:51:53.215Z,83.1663
2023-04-29T06:52:55.830Z,82.5890
2023-04-29T06:53:58.393Z,83.1190
2023-04-29T06:55:01.032Z,83.1550
2023-04-29T06:56:03.576Z,83.7592
2023-04-29T06:57:06.180Z,84.1470
2023-04-29T06:58:08.771Z,83.6472
2023-04-29T06:59:11.362Z,83.8734
2023-04-29T07:00:13.922Z,83.7131
2023-04-29T07:01:16.580Z,83.4069
2023-04-29T07:02:19.201Z,83.4018
2023-04-29T07:03:21.788Z,82.6409
2023-04-29T07:04:24.358Z,82.5834
2023-04-29T07:05:26.923Z,82.7023
2023-04-29T07:06:29.693Z,83.6470
2023-04-29T07:07:32.093Z,83.6907
2023-04-29T07:08:34.662Z,83.8262
2023-04-29T07:09:37.279Z,84.0838
2023-04-29T07:10:39.836Z,83.9613
2023-04-29T07:11:42.458Z,84.0359
2023-04-29T07:12:45.018Z,84.2957
2023-04-29T07:13:47.637Z,83.4439
2023-04-29T07:14:50.208Z,83.4157
2023-04-29T07:15:52.825Z,83.1343
2023-04-29T07:16:55.486Z,83.2934
2023-04-29T07:17:58.035Z,83.8659
2023-04-29T07:19:00.567Z,84.9754
2023-04-29T07:20:03.170Z,85.4673
2023-04-29T07:21:05.721Z,84.7079
2023-04-29T07:22:08.333Z,84.1195
2023-04-29T07:23:10.897Z,84.0896
2023-04-29T07:24:13.502Z,84.2116
2023-04-29T07:25:16.068Z,84.9596
2023-04-29T07:26:18.678Z,84.6436
2023-04-29T07:27:21.257Z,84.2372
2023-04-29T07:28:23.872Z,83.6217
2023-04-29T07:29:26.425Z,83.4215
2023-04-29T07:30:29.039Z,83.9148
2023-04-29T07:31:31.789Z,82.9913
2023-04-29T07:32:34.273Z,83.1038
2023-04-29T07:33:36.776Z,83.3082
2023-04-29T07:34:39.379Z,83.0995
2023-04-29T07:35:41.938Z,82.4992
2023-04-29T07:36:44.527Z,81.8785
2023-04-29T07:37:47.140Z,81.3666
2023-04-29T07:38:49.754Z,82.5023
2023-04-29T07:41:36.029Z,81.1862
2023-04-29T07:42:38.580Z,81.7035
2023-04-29T07:43:42.503Z,80.3622
2023-04-29T07:44:43.789Z,80.0577
2023-04-29T07:45:46.397Z,80.3078
2023-04-29T07:46:48.996Z,79.9980
2023-04-29T07:47:51.655Z,78.5379
2023-04-29T07:48:54.134Z,78.9169
2023-04-29T07:49:56.737Z,79.3019
2023-04-29T07:50:59.305Z,78.8020
2023-04-29T07:52:01.907Z,79.2278
2023-04-29T07:53:04.477Z,79.4282
2023-04-29T07:54:07.098Z,79.8543
2023-04-29T07:55:09.709Z,80.2114
2023-04-29T07:56:12.261Z,80.7741
2023-04-29T07:57:14.812Z,80.8333
2023-04-29T07:59:51.508Z,79.5643
2023-04-29T08:00:54.114Z,79.4701
2023-04-29T08:01:56.666Z,80.3391
2023-04-29T08:02:59.389Z,79.4060
2023-04-29T08:04:02.049Z,77.6292
2023-04-29T08:05:05.078Z,78.1835
2023-04-29T08:06:07.121Z,78.2186
2023-04-29T08:07:09.659Z,79.1154
2023-04-29T08:08:12.195Z,79.6634
2023-04-29T08:09:14.815Z,79.4218
2023-04-29T08:10:17.449Z,78.7416
2023-04-29T08:11:20.004Z,79.0298
2023-04-29T08:12:22.600Z,78.2942
2023-04-29T08:13:25.140Z,77.7413
2023-04-29T08:14:27.764Z,78.6267
2023-04-29T08:15:30.330Z,78.6058
2023-04-29T08:16:32.982Z,79.0438
2023-04-29T08:17:35.498Z,79.1487
2023-04-29T08:18:38.165Z,79.1012
2023-04-29T08:19:40.683Z,78.9909
2023-04-29T08:20:43.299Z,78.6741
2023-04-29T08:21:45.869Z,77.2093
2023-04-29T08:22:48.490Z,78.1200
2023-04-29T08:25:15.516Z,77.5528
2023-04-29T08:26:18.113Z,77.9229
2023-04-29T08:27:20.671Z,78.0797
2023-04-29T08:28:23.289Z,77.8302
2023-04-29T08:29:25.846Z,77.4037
2023-04-29T08:30:28.482Z,77.3375
2023-04-29T08:31:31.049Z,77.6492
2023-04-29T08:32:33.657Z,76.8936
2023-04-29T08:33:36.215Z,76.6888
2023-04-29T08:34:38.813Z,75.2708
2023-04-29T08:35:41.377Z,75.9410
2023-04-29T08:36:43.995Z,76.6570
2023-04-29T08:37:46.551Z,76.8006
2023-04-29T08:38:49.167Z,76.3643
2023-04-29T08:39:51.723Z,75.4413
2023-04-29T08:40:54.345Z,76.9951
2023-04-29T08:41:56.897Z,77.2572
2023-04-29T08:42:59.524Z,75.5008
2023-04-29T08:44:02.086Z,76.0426
2023-04-29T08:45:04.697Z,75.8836
2023-04-29T08:46:07.277Z,75.8829
2023-04-29T08:47:09.948Z,75.0080
2023-04-29T08:48:12.512Z,73.8908
2023-04-29T08:49:15.023Z,74.3244
2023-04-29T08:50:17.586Z,74.1063
2023-04-29T08:51:20.189Z,74.6780
2023-04-29T08:52:22.745Z,74.9087
2023-04-29T08:53:25.380Z,75.1483
2023-04-29T08:54:27.923Z,74.8190
2023-04-29T08:55:30.538Z,75.2616
2023-04-29T08:56:33.090Z,75.1575
2023-04-29T08:57:35.701Z,74.1558
2023-04-29T08:58:38.262Z,75.2348
2023-04-29T09:00:46.052Z,76.1925
2023-04-29T09:01:48.675Z,75.3663
2023-04-29T09:02:51.295Z,74.4927
2023-04-29T09:03:54.054Z,74.9905
2023-04-29T09:04:56.687Z,75.1772
2023-04-29T09:05:59.003Z,75.1877
2023-04-29T09:07:01.571Z,75.0216
2023-04-29T09:08:04.173Z,75.3994
2023-04-29T09:09:06.746Z,75.9271
2023-04-29T09:10:09.356Z,75.0804
2023-04-29T09:11:11.914Z,75.6685
2023-04-29T09:12:14.520Z,76.6321
2023-04-29T09:13:17.080Z,76.9060
2023-04-29T09:14:19.705Z,76.9377
2023-04-29T09:15:22.271Z,76.0363
2023-04-29T09:16:25.000Z,75.2026
2023-04-29T09:17:27.434Z,73.1514
2023-04-29T09:18:30.043Z,73.6641
2023-04-29T09:19:32.626Z,74.0184
2023-04-29T09:20:35.216Z,73.3393
2023-04-29T09:21:37.782Z,72.2551
2023-04-29T09:22:40.399Z,72.4773
2023-04-29T09:23:42.952Z,72.3604
2023-04-29T09:24:45.564Z,71.7183
2023-04-29T09:25:48.133Z,72.6470
2023-04-29T09:26:51.817Z,74.2104
2023-04-29T09:27:53.302Z,74.4943
2023-04-29T09:28:55.903Z,75.4454
2023-04-29T09:29:58.467Z,74.1346
2023-04-29T09:31:01.091Z,75.0904
2023-04-29T09:32:03.677Z,74.7635
2023-04-29T09:33:06.393Z,74.7037
2023-04-29T09:34:08.816Z,73.1717
2023-04-29T09:35:11.407Z,71.1765
2023-04-29T09:36:13.965Z,70.8329
2023-04-29T09:38:26.524Z,72.8390
2023-04-29T09:39:29.140Z,70.9018
2023-04-29T09:40:31.705Z,69.7564
2023-04-29T09:41:34.314Z,69.6327
2023-04-29T09:42:36.884Z,69.3113
2023-04-29T09:43:39.513Z,67.6601
2023-04-29T09:44:42.064Z,65.9306
2023-04-29T09:45:44.689Z,66.3355
2023-04-29T09:46:47.238Z,69.4517
2023-04-29T09:47:49.872Z,70.5776
2023-04-29T09:48:52.400Z,69.2543
2023-04-29T09:49:55.013Z,70.2055
2023-04-29T09:50:57.574Z,69.1420
2023-04-29T09:52:00.186Z,67.9781
2023-04-29T09:53:02.752Z,69.5310
2023-04-29T09:54:05.354Z,69.8605
2023-04-29T09:55:07.927Z,70.0238
2023-04-29T09:56:10.538Z,70.2240
2023-04-29T09:57:13.133Z,69.6272
2023-04-29T09:58:15.803Z,70.4667
2023-04-29T09:59:18.265Z,67.2192
2023-04-29T10:00:20.878Z,66.4734
2023-04-29T10:01:23.508Z,66.6824
2023-04-29T10:02:26.144Z,67.3167
2023-04-29T10:03:28.688Z,65.5574
2023-04-29T10:04:31.282Z,65.5882
2023-04-29T10:05:33.789Z,65.3989
2023-04-29T10:06:36.429Z,65.3718
2023-04-29T10:07:38.972Z,65.5683
2023-04-29T10:08:41.599Z,64.9269
2023-04-29T10:09:44.140Z,64.6927
2023-04-29T10:10:46.740Z,65.0040
2023-04-29T10:11:49.305Z,62.9781
2023-04-29T10:12:51.915Z,63.2173
2023-04-29T10:13:54.471Z,61.4979
2023-04-29T10:14:57.085Z,62.9964
2023-04-29T10:15:59.712Z,63.9912
2023-04-29T10:17:02.284Z,64.9350
2023-04-29T10:18:04.846Z,62.7719
2023-04-29T10:19:07.429Z,62.6686
2023-04-29T10:20:09.990Z,63.0224
2023-04-29T10:21:12.797Z,61.9090
2023-04-29T10:22:15.226Z,61.6997
2023-04-29T10:23:17.831Z,61.4856
2023-04-29T10:24:20.389Z,59.4946
2023-04-29T10:25:22.997Z,60.1868
2023-04-29T10:27:35.558Z,58.0940
2023-04-29T10:28:38.123Z,58.4733
2023-04-29T10:29:40.735Z,60.2661
2023-04-29T10:30:43.302Z,59.1909
2023-04-29T10:31:46.044Z,57.6530
2023-04-29T10:32:51.757Z,57.8966
2023-04-29T10:35:29.945Z,59.0948
2023-04-29T10:38:25.836Z,57.2538
2023-04-29T10:39:28.387Z,56.3820
2023-04-29T10:40:31.024Z,57.2684
2023-04-29T10:41:33.565Z,56.8693
2023-04-29T10:42:36.190Z,58.9979
2023-04-29T10:43:38.743Z,59.8666
2023-04-29T10:44:41.359Z,59.6262
2023-04-29T10:45:43.929Z,60.9547
2023-04-29T10:46:46.554Z,60.3859
2023-04-29T10:47:49.111Z,60.5198
2023-04-29T10:48:51.700Z,58.8995
2023-04-29T10:49:54.262Z,58.4481
2023-04-29T10:50:56.864Z,61.2019
2023-04-29T10:51:59.417Z,61.9691
2023-04-29T10:53:02.035Z,61.8423
2023-04-29T10:54:04.617Z,61.3508
2023-04-29T10:55:07.183Z,61.5586
2023-04-29T10:56:09.810Z,60.2035
2023-04-29T10:57:12.645Z,61.1294
2023-04-29T10:58:14.951Z,60.5478
2023-04-29T10:59:17.524Z,60.2440
2023-04-29T11:00:20.117Z,62.4392
2023-04-29T11:01:22.727Z,60.9628
2023-04-29T11:02:25.355Z,60.1165
2023-04-29T11:03:27.878Z,59.1023
2023-04-29T11:04:30.496Z,59.2039
2023-04-29T11:05:33.023Z,58.7854
2023-04-29T11:06:35.619Z,59.2778
2023-04-29T11:07:38.202Z,59.5879
2023-04-29T11:08:40.789Z,59.1408
2023-04-29T11:09:43.348Z,60.5635
2023-04-29T11:10:45.967Z,59.5702
2023-04-29T11:11:48.511Z,59.1310
2023-04-29T11:12:51.109Z,58.6244
2023-04-29T11:13:53.797Z,56.8309
2023-04-29T11:14:56.357Z,56.3802
2023-04-29T11:15:58.871Z,56.2201
2023-04-29T11:17:01.464Z,59.2358
2023-04-29T11:18:04.001Z,59.0903
2023-04-29T11:19:06.591Z,59.1188
2023-04-29T11:20:09.146Z,57.4781
2023-04-29T11:21:11.764Z,58.1543
2023-04-29T11:22:14.305Z,56.8057
2023-04-29T11:23:16.905Z,55.3940
2023-04-29T11:24:19.459Z,57.9360
2023-04-29T11:25:22.078Z,59.0388
2023-04-29T11:26:24.637Z,57.0412
2023-04-29T11:27:27.243Z,59.1953
2023-04-29T11:28:29.802Z,58.6595
2023-04-29T11:29:32.384Z,58.8586
2023-04-29T11:30:34.938Z,60.7377
2023-04-29T11:31:37.638Z,58.8388
2023-04-29T11:32:40.243Z,58.8466
2023-04-29T11:33:42.804Z,60.0245
2023-04-29T11:34:45.271Z,60.5549
2023-04-29T11:35:47.857Z,60.6116
2023-04-29T11:36:50.406Z,58.9309
2023-04-29T11:37:53.029Z,56.4959
2023-04-29T11:38:55.584Z,57.9161
2023-04-29T11:39:58.207Z,59.6051
2023-04-29T11:41:00.752Z,58.6326
2023-04-29T11:42:03.338Z,57.7456
2023-04-29T11:43:05.888Z,58.2558
2023-04-29T11:44:08.495Z,59.9361
2023-04-29T11:45:11.094Z,58.5216
2023-04-29T11:46:13.792Z,56.8730
2023-04-29T11:48:59.857Z,58.3410
2023-04-29T11:50:02.443Z,59.6121
2023-04-29T11:51:05.042Z,60.7114
2023-04-29T11:52:07.632Z,60.4160
2023-04-29T11:53:10.229Z,60.3629
2023-04-29T11:54:12.763Z,59.1704
2023-04-29T11:55:15.383Z,58.8381
2023-04-29T11:56:18.088Z,61.3878
2023-04-29T11:57:20.545Z,62.6884
2023-04-29T11:58:23.113Z,60.9577
2023-04-29T11:59:25.710Z,60.9597
2023-04-29T12:00:28.323Z,61.2938
2023-04-29T12:01:30.895Z,62.2960
2023-04-29T12:02:33.601Z,62.8418
2023-04-29T12:03:36.255Z,63.0572
2023-04-29T12:04:38.807Z,63.9201
2023-04-29T12:05:41.329Z,64.8137
2023-04-29T12:06:43.771Z,65.5026
2023-04-29T12:07:46.386Z,65.9529
2023-04-29T12:08:48.959Z,66.4195
2023-04-29T12:09:51.552Z,65.9175
2023-04-29T12:10:54.113Z,66.3853
2023-04-29T12:11:56.964Z,67.0505
2023-04-29T12:12:59.281Z,66.9921
2023-04-29T12:14:01.889Z,66.9379
2023-04-29T12:15:04.433Z,65.2374
2023-04-29T12:16:07.080Z,66.0036
2023-04-29T12:17:09.616Z,66.2581
2023-04-29T12:18:12.317Z,66.4483
2023-04-29T12:19:14.773Z,64.8780
2023-04-29T12:20:17.389Z,63.6311
2023-04-29T12:21:19.938Z,63.8153
2023-04-29T12:22:22.554Z,63.2512
2023-04-29T12:23:25.114Z,62.9346
2023-04-29T12:24:27.724Z,63.5332
2023-04-29T12:25:30.293Z,63.0742
2023-04-29T12:26:32.889Z,62.2729
2023-04-29T12:27:35.447Z,60.4750
2023-04-29T12:28:38.046Z,61.6275
2023-04-29T12:29:40.630Z,61.6818
2023-04-29T12:30:43.204Z,63.2743
2023-04-29T12:31:45.861Z,61.3956
2023-04-29T12:32:48.418Z,60.4776
2023-04-29T12:33:50.937Z,62.1071
2023-04-29T12:34:53.787Z,61.9761
2023-04-29T12:35:56.086Z,61.9805
2023-04-29T12:36:58.701Z,61.9338
2023-04-29T12:38:01.246Z,61.7343
2023-04-29T12:39:03.869Z,60.0069
2023-04-29T12:40:06.418Z,59.4222
2023-04-29T12:42:09.549Z,62.1458
2023-04-29T12:43:12.109Z,61.6325
2023-04-29T12:44:14.751Z,61.5982
2023-04-29T12:45:17.278Z,61.3092
2023-04-29T12:46:19.950Z,61.8301
2023-04-29T12:47:22.467Z,61.8524
2023-04-29T12:48:30.036Z,60.7789
2023-04-29T12:49:27.623Z,61.0062
2023-04-29T12:50:30.216Z,61.9337
2023-04-29T12:51:32.794Z,61.1245
2023-04-29T12:52:36.871Z,61.3148
2023-04-29T12:53:37.937Z,58.6186
2023-04-29T12:54:40.545Z,59.4536
2023-04-29T12:55:43.115Z,60.7220
2023-04-29T12:56:45.752Z,59.8649
2023-04-29T12:57:48.265Z,59.6196
2023-04-29T12:58:51.072Z,59.8047
2023-04-29T12:59:53.644Z,61.2874
2023-04-29T13:00:56.064Z,60.8484
2023-04-29T13:01:58.614Z,59.4442
2023-04-29T13:03:01.308Z,58.3975
2023-04-29T13:04:03.861Z,57.2954
2023-04-29T13:05:06.568Z,58.1291
2023-04-29T13:06:08.941Z,57.7645
2023-04-29T13:07:11.534Z,59.2318
2023-04-29T13:08:14.104Z,58.3167
2023-04-29T13:09:18.817Z,60.2408